الصفحة الرئيسية
METAR-TAF:

METAR-TAF

مطار :

بجنورد, إيران

دائرة عرض: 37-28N, خط طول: 057-20E, ارتفاع: 1074 متر

مراقبة الطقس الحالي

تاريخ ووقت الإصدار 35 دقيقة قبل الساعة 22:00UTC
رياح هادئة
درجة الحرارة 24°درجة مئوية
الرطوبة 57%
ضغط 1011 hPa
الرؤية: 8000 متر
غيوم قليلة على ارتفاع 4000 قدم
غيوم مفككة على ارتفاع 9000 قدم

METAR: OIMN 212200Z 00000KT 8000 FEW040 BKN090 24/15 Q1011

زمن: 03:05 (22:35 UTC)


TAF: مفقودة

أرصاد الطقس والتوقعات من أكثر من 4000 مطار (تقارير الطقس للمطار METAR والتنبؤ بالطقس بالمطارTAF).

المحطات المتاحة هي النقط الصفراء والحمراء على الخريطة.

حرك المؤشر فوق النقطة لمعرفة اسم المحطة.

ثم انقر لمعرفة أرصاد وتوقعات الطقس.

لتغيير الخارطة: اضغط على الأزرار الخضراء مع رمز الصليب الأسود للتكبير. على الزر الأخضر مع شرطة للتصغير، أو على الأسهم الخضراء للخرائط المجاورة.


METAR-TAF: